createdAt,value
2023-08-15T00:00:34.063Z,18.25
2023-08-15T00:04:13.343Z,18.16
2023-08-15T00:07:49.718Z,18.09
2023-08-15T00:11:27.037Z,18.00
2023-08-15T00:15:05.530Z,18.02
2023-08-15T00:18:43.676Z,18.04
2023-08-15T00:22:20.109Z,18.06
2023-08-15T00:25:58.053Z,18.09
2023-08-15T00:29:41.396Z,18.10
2023-08-15T00:33:31.973Z,18.10
2023-08-15T00:36:57.287Z,18.00
2023-08-15T00:40:40.676Z,17.87
2023-08-15T00:44:12.537Z,17.88
2023-08-15T00:47:50.804Z,17.90
2023-08-15T00:51:28.369Z,17.96
2023-08-15T00:55:09.382Z,17.93
2023-08-15T00:58:43.539Z,17.82
2023-08-15T01:02:21.083Z,17.72
2023-08-15T01:05:58.674Z,17.53
2023-08-15T01:09:38.465Z,17.44
2023-08-15T01:13:37.625Z,17.41
2023-08-15T01:17:06.552Z,17.33
2023-08-15T01:20:44.711Z,17.30
2023-08-15T01:24:21.728Z,17.27
2023-08-15T01:27:57.736Z,17.23
2023-08-15T01:31:41.367Z,17.15
2023-08-15T01:35:25.821Z,17.14
2023-08-15T01:39:05.066Z,17.12
2023-08-15T01:42:34.254Z,17.12
2023-08-15T01:46:09.879Z,17.12
2023-08-15T01:49:47.275Z,17.09
2023-08-15T01:53:24.950Z,17.17
2023-08-15T01:57:02.730Z,17.31
2023-08-15T02:00:48.166Z,17.40
2023-08-15T02:04:21.038Z,17.47
2023-08-15T02:07:55.884Z,17.51
2023-08-15T02:11:33.578Z,17.55
2023-08-15T02:15:11.125Z,17.54
2023-08-15T02:18:49.202Z,17.54
2023-08-15T02:22:26.181Z,17.35
2023-08-15T02:26:04.212Z,17.26
2023-08-15T02:29:41.717Z,17.25
2023-08-15T02:33:19.823Z,17.25
2023-08-15T02:36:57.130Z,17.21
2023-08-15T02:40:35.139Z,17.20
2023-08-15T02:44:14.086Z,17.18
2023-08-15T02:47:51.376Z,17.14
2023-08-15T02:51:29.755Z,17.00
2023-08-15T02:55:06.634Z,16.86
2023-08-15T02:58:43.210Z,16.81
2023-08-15T03:02:20.832Z,16.83
2023-08-15T03:06:02.530Z,16.90
2023-08-15T03:09:36.066Z,16.94
2023-08-15T03:13:13.860Z,16.99
2023-08-15T03:16:51.541Z,16.99
2023-08-15T03:20:30.836Z,16.97
2023-08-15T03:24:07.864Z,16.96
2023-08-15T03:27:44.467Z,17.01
2023-08-15T03:31:22.517Z,17.09
2023-08-15T03:35:21.590Z,17.12
2023-08-15T03:38:47.847Z,17.13
2023-08-15T03:42:27.076Z,17.17
2023-08-15T03:46:04.753Z,17.19
2023-08-15T03:49:40.934Z,17.19
2023-08-15T03:53:37.299Z,17.24
2023-08-15T03:57:02.794Z,17.28
2023-08-15T04:00:40.637Z,17.27
2023-08-15T04:04:18.109Z,17.32
2023-08-15T04:07:56.069Z,17.43
2023-08-15T04:11:36.406Z,17.47
2023-08-15T04:15:11.874Z,17.50
2023-08-15T04:18:48.861Z,17.52
2023-08-15T04:22:26.690Z,17.54
2023-08-15T04:26:04.504Z,17.56
2023-08-15T04:29:41.817Z,17.62
2023-08-15T04:33:38.396Z,17.72
2023-08-15T04:37:03.057Z,17.88
2023-08-15T04:40:44.973Z,18.04
2023-08-15T04:44:18.418Z,18.18
2023-08-15T04:47:56.323Z,18.25
2023-08-15T04:51:33.817Z,18.37
2023-08-15T04:55:30.388Z,18.50
2023-08-15T04:58:55.186Z,18.64
2023-08-15T05:02:32.843Z,18.76
2023-08-15T05:06:12.419Z,18.84
2023-08-15T05:09:48.658Z,18.91
2023-08-15T05:13:26.010Z,18.97
2023-08-15T05:17:03.932Z,19.04
2023-08-15T05:21:00.232Z,19.14
2023-08-15T05:24:26.461Z,19.26
2023-08-15T05:28:22.785Z,19.37
2023-08-15T05:31:48.316Z,19.46
2023-08-15T05:35:27.212Z,19.52
2023-08-15T05:39:22.802Z,19.62
2023-08-15T05:43:09.194Z,19.73
2023-08-15T05:46:55.010Z,19.85
2023-08-15T05:50:40.762Z,20.00
2023-08-15T05:54:08.793Z,20.16
2023-08-15T05:57:45.235Z,20.32
2023-08-15T06:01:24.052Z,20.45
2023-08-15T06:05:00.657Z,20.57
2023-08-15T06:08:38.328Z,20.69
2023-08-15T06:12:15.967Z,20.82
2023-08-15T06:15:53.748Z,20.94
2023-08-15T06:19:31.501Z,21.04
2023-08-15T06:23:09.032Z,21.15
2023-08-15T06:26:46.737Z,21.32
2023-08-15T06:30:24.514Z,21.49
2023-08-15T06:34:06.246Z,21.64
2023-08-15T06:37:39.839Z,21.77
2023-08-15T06:41:18.061Z,21.90
2023-08-15T06:45:12.533Z,22.03
2023-08-15T06:48:58.003Z,22.18
2023-08-15T06:52:24.549Z,22.33
2023-08-15T06:56:02.715Z,22.47
2023-08-15T06:59:58.217Z,22.61
2023-08-15T07:03:26.222Z,22.76
2023-08-15T07:07:23.558Z,22.90
2023-08-15T07:11:09.142Z,23.05
2023-08-15T07:14:53.511Z,23.20
2023-08-15T07:18:20.779Z,23.34
2023-08-15T07:21:56.693Z,23.47
2023-08-15T07:25:34.165Z,23.57
2023-08-15T07:29:12.868Z,23.64
2023-08-15T07:32:49.746Z,23.73
2023-08-15T07:36:27.283Z,23.87
2023-08-15T07:40:11.076Z,24.01
2023-08-15T07:43:42.571Z,24.15
2023-08-15T07:47:23.690Z,24.26
2023-08-15T07:50:58.187Z,24.37
2023-08-15T07:54:37.542Z,24.48
2023-08-15T07:58:13.796Z,24.60
2023-08-15T08:01:53.533Z,24.71
2023-08-15T08:05:32.847Z,24.85
2023-08-15T08:09:07.386Z,24.96
2023-08-15T08:13:05.035Z,25.07
2023-08-15T08:16:32.799Z,25.15
2023-08-15T08:20:14.018Z,25.28
2023-08-15T08:23:45.384Z,25.41
2023-08-15T08:27:45.955Z,25.53
2023-08-15T08:31:11.192Z,25.62
2023-08-15T08:34:49.006Z,25.69
2023-08-15T08:38:28.556Z,25.80
2023-08-15T08:42:04.970Z,25.89
2023-08-15T08:45:49.400Z,25.98
2023-08-15T08:49:21.848Z,26.09
2023-08-15T08:52:57.603Z,26.21
2023-08-15T08:56:35.314Z,26.33
2023-08-15T09:00:16.081Z,26.41
2023-08-15T09:03:50.490Z,26.50
2023-08-15T09:07:28.020Z,26.61
2023-08-15T09:11:06.350Z,26.67
2023-08-15T09:14:43.430Z,26.73
2023-08-15T09:18:25.729Z,26.83
2023-08-15T09:21:59.196Z,26.89
2023-08-15T09:25:56.418Z,26.99
2023-08-15T09:29:23.038Z,27.11
2023-08-15T09:33:02.255Z,27.20
2023-08-15T09:36:36.590Z,27.28
2023-08-15T09:40:26.828Z,27.41
2023-08-15T09:43:54.974Z,27.51
2023-08-15T09:47:31.078Z,27.54
2023-08-15T09:51:28.259Z,27.59
2023-08-15T09:54:53.108Z,27.71
2023-08-15T09:58:30.864Z,27.79
2023-08-15T10:02:23.645Z,27.88
2023-08-15T10:05:56.129Z,28.02
2023-08-15T10:09:30.815Z,28.08
2023-08-15T10:13:08.936Z,28.21
2023-08-15T10:16:43.988Z,28.36
2023-08-15T10:20:43.414Z,28.48
2023-08-15T10:24:10.032Z,28.58
2023-08-15T10:27:55.317Z,28.67
2023-08-15T10:31:37.368Z,28.79
2023-08-15T10:35:32.110Z,28.91
2023-08-15T10:39:18.526Z,29.01
2023-08-15T10:43:06.056Z,29.11
2023-08-15T10:46:51.993Z,29.23
2023-08-15T10:50:17.408Z,29.33
2023-08-15T10:54:15.756Z,29.42
2023-08-15T10:57:42.412Z,29.60
2023-08-15T11:01:21.298Z,29.75
2023-08-15T11:04:57.406Z,29.89
2023-08-15T11:08:56.127Z,30.03
2023-08-15T11:12:21.007Z,30.14
2023-08-15T11:16:00.100Z,30.18
2023-08-15T11:19:36.439Z,30.26
2023-08-15T11:23:13.901Z,30.37
2023-08-15T11:26:52.244Z,30.44
2023-08-15T11:30:30.083Z,30.46
2023-08-15T11:34:07.802Z,30.58
2023-08-15T11:37:44.993Z,30.67
2023-08-15T11:41:22.959Z,30.72
2023-08-15T11:45:10.511Z,30.90
2023-08-15T11:48:37.932Z,31.03
2023-08-15T11:52:18.349Z,31.09
2023-08-15T11:56:12.167Z,31.16
2023-08-15T11:59:55.844Z,31.29
2023-08-15T12:03:20.894Z,31.37
2023-08-15T12:06:59.165Z,31.49
2023-08-15T12:10:36.332Z,31.64
2023-08-15T12:14:21.508Z,31.75
2023-08-15T12:17:52.090Z,31.85
2023-08-15T12:21:28.991Z,31.86
2023-08-15T12:25:09.110Z,31.92
2023-08-15T12:28:45.477Z,32.08
2023-08-15T12:32:22.940Z,32.14
2023-08-15T12:35:59.823Z,32.26
2023-08-15T12:39:37.520Z,32.38
2023-08-15T12:43:15.139Z,32.48
2023-08-15T12:46:52.973Z,32.65
2023-08-15T12:50:49.751Z,32.77
2023-08-15T12:54:34.638Z,32.87
2023-08-15T12:58:01.290Z,32.99
2023-08-15T13:01:41.309Z,33.08
2023-08-15T13:05:33.748Z,33.03
2023-08-15T13:08:58.652Z,32.98
2023-08-15T13:12:55.704Z,33.05
2023-08-15T13:16:20.436Z,33.05
2023-08-15T13:19:58.061Z,33.13
2023-08-15T13:23:35.750Z,33.22
2023-08-15T13:27:32.131Z,33.26
2023-08-15T13:30:58.573Z,33.23
2023-08-15T13:34:34.972Z,33.28
2023-08-15T13:38:14.198Z,33.43
2023-08-15T13:41:50.574Z,33.56
2023-08-15T13:45:28.190Z,33.66
2023-08-15T13:49:06.425Z,33.73
2023-08-15T13:52:43.367Z,33.84
2023-08-15T13:56:21.012Z,33.85
2023-08-15T13:59:58.819Z,33.94
2023-08-15T14:03:39.716Z,34.08
2023-08-15T14:07:14.171Z,34.20
2023-08-15T14:10:52.190Z,34.37
2023-08-15T14:14:29.527Z,34.43
2023-08-15T14:18:08.424Z,34.39
2023-08-15T14:21:45.167Z,34.43
2023-08-15T14:25:22.582Z,34.53
2023-08-15T14:29:00.193Z,34.56
2023-08-15T14:32:38.039Z,34.68
2023-08-15T14:36:15.494Z,34.71
2023-08-15T14:40:12.206Z,34.76
2023-08-15T14:43:55.839Z,34.75
2023-08-15T14:47:29.449Z,34.74
2023-08-15T14:51:17.122Z,34.82
2023-08-15T14:54:42.016Z,34.84
2023-08-15T14:58:19.856Z,34.95
2023-08-15T15:01:59.100Z,35.05
2023-08-15T15:05:35.098Z,34.97
2023-08-15T15:09:12.933Z,34.99
2023-08-15T15:12:50.580Z,35.00
2023-08-15T15:16:28.330Z,35.07
2023-08-15T15:20:07.973Z,35.00
2023-08-15T15:24:05.536Z,34.93
2023-08-15T15:27:31.347Z,34.98
2023-08-15T15:31:09.207Z,34.92
2023-08-15T15:34:47.234Z,34.64
2023-08-15T15:38:24.452Z,34.37
2023-08-15T15:42:02.288Z,34.07
2023-08-15T15:45:40.396Z,33.88
2023-08-15T15:49:18.568Z,33.66
2023-08-15T15:52:55.451Z,33.48
2023-08-15T15:56:51.774Z,33.29
2023-08-15T16:00:22.447Z,33.11
2023-08-15T16:03:54.958Z,33.04
2023-08-15T16:07:32.655Z,32.96
2023-08-15T16:11:10.730Z,32.76
2023-08-15T16:14:47.197Z,32.68
2023-08-15T16:18:25.503Z,32.57
2023-08-15T16:22:06.578Z,32.53
2023-08-15T16:25:40.330Z,32.52
2023-08-15T16:29:17.904Z,32.58
2023-08-15T16:33:15.090Z,32.65
2023-08-15T16:36:41.231Z,32.65
2023-08-15T16:40:19.006Z,32.63
2023-08-15T16:43:57.612Z,32.59
2023-08-15T16:47:37.634Z,32.30
2023-08-15T16:51:12.019Z,32.02
2023-08-15T16:55:08.885Z,31.62
2023-08-15T16:58:33.953Z,31.13
2023-08-15T17:02:30.542Z,30.68
2023-08-15T17:06:02.268Z,30.28
2023-08-15T17:09:35.680Z,29.83
2023-08-15T17:13:12.364Z,29.39
2023-08-15T17:16:48.998Z,28.93
2023-08-15T17:20:27.296Z,28.39
2023-08-15T17:24:05.000Z,27.95
2023-08-15T17:27:41.879Z,27.42
2023-08-15T17:31:20.293Z,27.00
2023-08-15T17:34:57.334Z,26.72
2023-08-15T17:38:36.708Z,26.20
2023-08-15T17:42:12.810Z,25.82
2023-08-15T17:45:51.189Z,25.46
2023-08-15T17:49:28.200Z,25.00
2023-08-15T17:53:05.989Z,24.68
2023-08-15T17:56:43.506Z,24.34
2023-08-15T18:00:21.486Z,24.02
2023-08-15T18:04:05.272Z,23.82
2023-08-15T18:07:36.842Z,23.49
2023-08-15T18:11:17.435Z,23.41
2023-08-15T18:14:51.919Z,23.27
2023-08-15T18:18:33.644Z,23.12
2023-08-15T18:22:09.078Z,22.98
2023-08-15T18:25:44.848Z,22.83
2023-08-15T18:29:23.606Z,22.70
2023-08-15T18:33:03.497Z,22.61
2023-08-15T18:36:57.362Z,22.49
2023-08-15T18:40:23.634Z,22.34
2023-08-15T18:44:01.329Z,22.24
2023-08-15T18:47:38.507Z,22.12
2023-08-15T18:51:17.306Z,21.94
2023-08-15T18:54:53.184Z,21.92
2023-08-15T18:58:30.771Z,21.72
2023-08-15T19:02:09.544Z,21.61
2023-08-15T19:05:47.244Z,21.39
2023-08-15T19:09:23.929Z,21.29
2023-08-15T19:13:01.674Z,21.27
2023-08-15T19:16:39.190Z,21.11
2023-08-15T19:20:19.059Z,21.00
2023-08-15T19:23:55.563Z,20.95
2023-08-15T19:27:33.461Z,20.92
2023-08-15T19:31:12.744Z,20.81
2023-08-15T19:34:49.137Z,20.69
2023-08-15T19:38:25.150Z,20.64
2023-08-15T19:42:03.189Z,20.66
2023-08-15T19:45:40.670Z,20.67
2023-08-15T19:49:18.751Z,20.63
2023-08-15T19:52:56.180Z,20.52
2023-08-15T19:56:33.732Z,20.36
2023-08-15T20:00:11.838Z,20.37
2023-08-15T20:03:49.114Z,20.43
2023-08-15T20:07:26.830Z,20.30
2023-08-15T20:11:05.461Z,20.11
2023-08-15T20:14:43.212Z,19.99
2023-08-15T20:18:24.589Z,19.90
2023-08-15T20:21:59.443Z,19.80
2023-08-15T20:25:35.219Z,19.76
2023-08-15T20:29:12.834Z,19.69
2023-08-15T20:32:50.594Z,19.67
2023-08-15T20:36:28.296Z,19.57
2023-08-15T20:40:06.286Z,19.65
2023-08-15T20:44:02.496Z,19.76
2023-08-15T20:47:27.461Z,19.65
2023-08-15T20:51:05.174Z,19.54
2023-08-15T20:54:44.289Z,19.55
2023-08-15T20:58:20.353Z,19.63
2023-08-15T21:02:17.081Z,19.66
2023-08-15T21:06:01.008Z,19.65
2023-08-15T21:09:45.045Z,19.55
2023-08-15T21:13:11.190Z,19.45
2023-08-15T21:16:48.805Z,19.42
2023-08-15T21:20:28.396Z,19.35
2023-08-15T21:24:04.596Z,19.26
2023-08-15T21:28:00.618Z,19.16
2023-08-15T21:31:27.046Z,19.12
2023-08-15T21:35:02.932Z,19.16
2023-08-15T21:38:41.170Z,19.14
2023-08-15T21:42:41.322Z,19.09
2023-08-15T21:46:25.224Z,19.00
2023-08-15T21:49:53.514Z,18.88
2023-08-15T21:53:48.792Z,18.85
2023-08-15T21:57:15.319Z,18.74
2023-08-15T22:00:52.991Z,18.61
2023-08-15T22:04:30.846Z,18.68
2023-08-15T22:08:28.878Z,18.76
2023-08-15T22:11:54.289Z,18.77
2023-08-15T22:15:31.940Z,18.83
2023-08-15T22:19:09.650Z,18.90
2023-08-15T22:22:51.445Z,18.96
2023-08-15T22:26:25.047Z,18.97
2023-08-15T22:30:03.059Z,18.90
2023-08-15T22:33:41.009Z,18.80
2023-08-15T22:37:18.076Z,18.73
2023-08-15T22:40:55.674Z,18.63
2023-08-15T22:44:36.383Z,18.60
2023-08-15T22:48:11.149Z,18.64
2023-08-15T22:51:48.714Z,18.68
2023-08-15T22:55:45.191Z,18.66
2023-08-15T22:59:10.760Z,18.60
2023-08-15T23:02:48.347Z,18.61
2023-08-15T23:06:26.444Z,18.45
2023-08-15T23:10:04.438Z,18.29
2023-08-15T23:13:41.563Z,18.12
2023-08-15T23:17:18.919Z,18.02
2023-08-15T23:20:59.589Z,18.12
2023-08-15T23:24:34.322Z,18.01
2023-08-15T23:28:12.270Z,18.01
2023-08-15T23:31:49.601Z,17.98
2023-08-15T23:35:27.313Z,17.97
2023-08-15T23:39:25.438Z,18.01
2023-08-15T23:42:50.429Z,18.00
2023-08-15T23:46:28.731Z,17.92
2023-08-15T23:50:06.391Z,17.96
2023-08-15T23:53:43.331Z,17.99
2023-08-15T23:57:21.693Z,17.99
